This is the latest recevied weather packets stored in our database for station/object AC4AG. If no packets are shown the sender has not sent any weather packets the latest 10 day(s).
| Time | Temp. | Humidity | Pressure | Rain* | Wind** | Luminosity | Snow |
|---|---|---|---|---|---|---|---|
| 1777653998 | 15.56° C | 54% | 1014.2 hPa | 0 mm | - | 897 W/m² | - |
| 1777653694 | 15.56° C | 58% | 1014.3 hPa | 0 mm | - | 888 W/m² | - |
| 1777653390 | 15° C | 55% | 1014 hPa | 0 mm | - | 692 W/m² | - |
| 1777653088 | 15° C | 54% | 1014.4 hPa | 0 mm | - | 872 W/m² | - |
| 1777652783 | 15.56° C | 54% | 1014.2 hPa | 0 mm | - | 861 W/m² | - |
| 1777652480 | 15° C | 55% | 1014.4 hPa | 0 mm | - | 825 W/m² | - |
| 1777652178 | 15° C | 55% | 1014.5 hPa | 0 mm | - | 824 W/m² | - |
| 1777651875 | 15° C | 55% | 1014.5 hPa | 0 mm | - | 794 W/m² | - |
| 1777651571 | 15° C | 55% | 1014.8 hPa | 0 mm | - | 822 W/m² | - |
| 1777651269 | 15° C | 55% | 1014.4 hPa | 0 mm | - | 814 W/m² | - |
| 1777650965 | 15° C | 55% | 1014.4 hPa | 0 mm | - | 805 W/m² | - |
| 1777650662 | 14.44° C | 56% | 1014.4 hPa | 0 mm | - | 737 W/m² | - |
| 1777650359 | 14.44° C | 57% | 1014.4 hPa | 0 mm | - | 779 W/m² | - |
| 1777650056 | 14.44° C | 55% | 1014.4 hPa | 0 mm | - | 764 W/m² | - |
| 1777649754 | 14.44° C | 57% | 1014.5 hPa | 0 mm | - | 704 W/m² | - |
| 1777649450 | 14.44° C | 55% | 1014.6 hPa | 0 mm | - | 753 W/m² | - |
| 1777649147 | 14.44° C | 53% | 1014.6 hPa | 0 mm | - | 652 W/m² | - |
| 1777648844 | 14.44° C | 56% | 1014.6 hPa | 0 mm | - | 714 W/m² | - |
| 1777648541 | 14.44° C | 56% | 1014.7 hPa | 0 mm | - | 668 W/m² | - |
| 1777648238 | 14.44° C | 59% | 1014.8 hPa | 0 mm | - | 695 W/m² | - |
| 1777647933 | 14.44° C | 57% | 1014.6 hPa | 0 mm | - | 688 W/m² | - |
| 1777647630 | 13.89° C | 61% | 1014.4 hPa | 0 mm | - | 639 W/m² | - |
| 1777647326 | 13.89° C | 62% | 1014.4 hPa | 0 mm | - | 648 W/m² | - |
| 1777647025 | 13.33° C | 60% | 1014.5 hPa | 0 mm | - | 635 W/m² | - |
| 1777646720 | 13.33° C | 60% | 1014.7 hPa | 0 mm | - | 613 W/m² | - |
* Rain latest hour (hover to see other rain measurements)
** Current wind speed in m/s (hover to see current wind gust speed)